createdAt,value
2019-03-22T00:01:35.209Z,47.88
2019-03-22T00:04:04.990Z,47.25
2019-03-22T00:06:34.519Z,45.40
2019-03-22T00:09:06.052Z,44.93
2019-03-22T00:11:35.538Z,44.65
2019-03-22T00:14:05.160Z,44.20
2019-03-22T00:16:35.781Z,44.27
2019-03-22T00:19:05.366Z,45.95
2019-03-22T00:21:34.909Z,44.33
2019-03-22T00:24:04.477Z,43.58
2019-03-22T00:26:33.910Z,43.08
2019-03-22T00:29:04.467Z,44.77
2019-03-22T00:31:33.898Z,44.50
2019-03-22T00:34:04.451Z,42.54
2019-03-22T00:36:34.231Z,42.93
2019-03-22T00:39:05.718Z,45.38
2019-03-22T00:41:35.153Z,40.33
2019-03-22T00:44:04.713Z,43.48
2019-03-22T00:46:34.201Z,44.95
2019-03-22T00:49:04.564Z,43.80
2019-03-22T00:51:34.107Z,42.73
2019-03-22T00:54:04.436Z,44.10
2019-03-22T00:56:33.995Z,43.85
2019-03-22T00:59:04.452Z,43.58
2019-03-22T01:01:33.939Z,45.12
2019-03-22T01:04:04.445Z,43.40
2019-03-22T01:06:33.921Z,43.95
2019-03-22T01:09:05.474Z,42.82
2019-03-22T01:11:34.991Z,44.83
2019-03-22T01:14:04.509Z,45.98
2019-03-22T01:16:33.941Z,45.65
2019-03-22T01:19:04.480Z,45.58
2019-03-22T01:21:33.990Z,46.37
2019-03-22T01:24:04.547Z,45.97
2019-03-22T01:26:33.977Z,45.60
2019-03-22T01:29:04.551Z,47.44
2019-03-22T01:31:34.028Z,45.67
2019-03-22T01:34:04.632Z,44.48
2019-03-22T01:36:34.131Z,45.45
2019-03-22T01:39:06.427Z,45.63
2019-03-22T01:41:36.444Z,44.80
2019-03-22T01:44:06.025Z,44.18
2019-03-22T01:46:35.546Z,45.00
2019-03-22T01:49:07.506Z,45.38
2019-03-22T01:51:37.048Z,46.02
2019-03-22T01:54:06.562Z,46.28
2019-03-22T01:56:36.082Z,45.03
2019-03-22T01:59:05.565Z,44.10
2019-03-22T02:01:35.198Z,44.10
2019-03-22T02:04:04.605Z,42.05
2019-03-22T02:06:34.086Z,46.28
2019-03-22T02:09:07.259Z,46.42
2019-03-22T02:11:36.748Z,44.30
2019-03-22T02:14:06.257Z,44.93
2019-03-22T02:16:37.508Z,45.03
2019-03-22T02:19:07.088Z,44.55
2019-03-22T02:21:36.567Z,41.75
2019-03-22T02:24:07.016Z,41.83
2019-03-22T02:26:36.468Z,42.60
2019-03-22T02:29:06.564Z,41.18
2019-03-22T02:31:36.058Z,40.38
2019-03-22T02:34:05.552Z,39.63
2019-03-22T02:36:35.018Z,42.15
2019-03-22T02:39:06.451Z,40.40
2019-03-22T02:41:36.016Z,41.33
2019-03-22T02:44:05.479Z,41.23
2019-03-22T02:46:34.961Z,40.20
2019-03-22T02:49:04.518Z,42.15
2019-03-22T02:51:33.987Z,40.98
2019-03-22T02:54:04.573Z,41.40
2019-03-22T02:56:34.081Z,41.08
2019-03-22T02:59:04.595Z,43.13
2019-03-22T03:01:34.169Z,45.33
2019-03-22T03:04:04.578Z,45.67
2019-03-22T03:06:34.140Z,43.28
2019-03-22T03:09:06.131Z,46.15
2019-03-22T03:11:35.715Z,47.65
2019-03-22T03:14:05.276Z,49.80
2019-03-22T03:16:35.726Z,47.62
2019-03-22T03:19:05.324Z,47.70
2019-03-22T03:21:34.882Z,46.85
2019-03-22T03:24:04.486Z,43.77
2019-03-22T03:26:34.048Z,44.55
2019-03-22T03:29:04.680Z,44.85
2019-03-22T03:31:34.157Z,42.93
2019-03-22T03:34:04.563Z,42.45
2019-03-22T03:36:35.095Z,43.87
2019-03-22T03:39:06.909Z,45.95
2019-03-22T03:41:36.667Z,46.25
2019-03-22T03:44:06.386Z,45.25
2019-03-22T03:46:35.942Z,45.28
2019-03-22T03:49:05.530Z,45.10
2019-03-22T03:51:35.052Z,45.48
2019-03-22T03:54:04.575Z,49.27
2019-03-22T03:56:34.186Z,49.20
2019-03-22T03:59:04.498Z,47.23
2019-03-22T04:01:34.067Z,46.73
2019-03-22T04:04:04.547Z,46.80
2019-03-22T04:06:34.591Z,43.00
2019-03-22T04:09:06.846Z,44.48
2019-03-22T04:11:36.411Z,46.85
2019-03-22T04:14:07.640Z,46.70
2019-03-22T04:16:37.455Z,43.50
2019-03-22T04:19:07.028Z,42.27
2019-03-22T04:21:36.575Z,44.53
2019-03-22T04:24:06.052Z,47.20
2019-03-22T04:26:35.524Z,46.95
2019-03-22T04:29:07.985Z,42.48
2019-03-22T04:31:36.254Z,39.88
2019-03-22T04:34:05.745Z,42.10
2019-03-22T04:36:36.394Z,42.83
2019-03-22T04:39:07.589Z,38.70
2019-03-22T04:41:37.088Z,40.88
2019-03-22T04:44:06.733Z,41.83
2019-03-22T04:46:37.870Z,39.08
2019-03-22T04:49:08.120Z,39.70
2019-03-22T04:51:37.846Z,37.38
2019-03-22T04:54:07.864Z,38.65
2019-03-22T04:56:39.323Z,39.05
2019-03-22T04:59:19.012Z,36.32
2019-03-22T05:01:44.936Z,36.88
2019-03-22T05:04:15.740Z,37.75
2019-03-22T05:06:46.897Z,38.70
2019-03-22T05:09:18.131Z,39.78
2019-03-22T05:11:48.510Z,39.45
2019-03-22T05:14:20.228Z,41.37
2019-03-22T05:16:52.748Z,44.67
2019-03-22T05:19:29.412Z,42.27
2019-03-22T05:22:00.690Z,44.15
2019-03-22T05:24:32.008Z,42.55
2019-03-22T05:27:02.199Z,42.48
2019-03-22T05:29:34.485Z,42.58
2019-03-22T05:32:07.418Z,42.17
2019-03-22T05:34:37.106Z,41.75
2019-03-22T05:37:06.706Z,41.50
2019-03-22T05:39:36.186Z,41.60
2019-03-22T05:42:05.752Z,43.78
2019-03-22T05:44:35.201Z,41.18
2019-03-22T05:47:04.756Z,41.00
2019-03-22T05:49:34.201Z,40.00
2019-03-22T05:52:04.902Z,36.70
2019-03-22T05:54:34.354Z,36.90
2019-03-22T05:57:13.184Z,36.17
2019-03-22T05:59:42.499Z,35.63
2019-03-22T06:02:07.119Z,34.18
2019-03-22T06:04:36.715Z,34.98
2019-03-22T06:07:06.299Z,33.60
2019-03-22T06:09:35.775Z,35.28
2019-03-22T06:12:05.316Z,34.73
2019-03-22T06:14:34.788Z,35.25
2019-03-22T06:17:04.691Z,35.76
2019-03-22T06:19:34.256Z,36.03
2019-03-22T06:22:04.744Z,35.52
2019-03-22T06:24:34.246Z,35.88
2019-03-22T06:27:04.470Z,35.25
2019-03-22T06:29:33.965Z,36.38
2019-03-22T06:32:04.455Z,37.33
2019-03-22T06:34:33.969Z,37.85
2019-03-22T06:37:04.493Z,37.00
2019-03-22T06:39:34.022Z,36.42
2019-03-22T06:42:04.603Z,37.05
2019-03-22T06:44:34.147Z,37.58
2019-03-22T06:47:04.376Z,38.10
2019-03-22T06:49:33.993Z,38.15
2019-03-22T06:52:04.579Z,37.33
2019-03-22T06:54:34.150Z,36.15
2019-03-22T06:57:04.553Z,36.34
2019-03-22T06:59:34.045Z,35.73
2019-03-22T07:02:04.528Z,35.65
2019-03-22T07:04:33.959Z,35.55
2019-03-22T07:07:04.428Z,37.48
2019-03-22T07:09:33.925Z,42.10
2019-03-22T07:12:04.916Z,41.92
2019-03-22T07:14:34.436Z,40.92
2019-03-22T07:17:04.458Z,41.30
2019-03-22T07:19:33.975Z,41.33
2019-03-22T07:22:04.531Z,40.88
2019-03-22T07:24:34.062Z,42.00
2019-03-22T07:27:04.774Z,40.95
2019-03-22T07:29:34.319Z,40.03
2019-03-22T07:32:04.523Z,40.50
2019-03-22T07:34:34.078Z,40.23
2019-03-22T07:37:04.723Z,40.88
2019-03-22T07:39:34.411Z,39.90
2019-03-22T07:42:04.515Z,41.48
2019-03-22T07:44:34.218Z,41.42
2019-03-22T07:47:04.619Z,40.75
2019-03-22T07:49:34.557Z,40.90
2019-03-22T07:52:04.658Z,42.13
2019-03-22T07:54:36.422Z,42.03
2019-03-22T07:57:06.888Z,40.00
2019-03-22T07:59:36.457Z,42.70
2019-03-22T08:02:06.130Z,42.17
2019-03-22T08:04:35.659Z,40.78
2019-03-22T08:07:05.650Z,42.55
2019-03-22T08:09:35.317Z,43.15
2019-03-22T08:12:05.067Z,41.90
2019-03-22T08:14:34.646Z,42.73
2019-03-22T08:17:04.468Z,44.25
2019-03-22T08:19:33.971Z,43.98
2019-03-22T08:22:04.739Z,45.67
2019-03-22T08:24:34.448Z,46.65
2019-03-22T08:27:04.583Z,44.77
2019-03-22T08:29:34.078Z,44.67
2019-03-22T08:32:04.785Z,45.50
2019-03-22T08:34:34.425Z,46.45
2019-03-22T08:37:04.605Z,43.15
2019-03-22T08:39:34.223Z,43.38
2019-03-22T08:42:04.419Z,44.00
2019-03-22T08:44:34.057Z,46.25
2019-03-22T08:47:03.731Z,44.45
2019-03-22T08:49:33.417Z,45.30
2019-03-22T08:52:03.293Z,45.43
2019-03-22T08:54:33.149Z,44.75
2019-03-22T08:57:02.623Z,44.88
2019-03-22T08:59:32.128Z,46.65
2019-03-22T09:02:01.733Z,47.58
2019-03-22T09:04:31.262Z,47.73
2019-03-22T09:07:00.725Z,45.35
2019-03-22T09:09:40.887Z,45.85
2019-03-22T09:12:01.543Z,47.90
2019-03-22T09:14:31.132Z,46.83
2019-03-22T09:17:00.745Z,45.85
2019-03-22T09:19:30.412Z,47.03
2019-03-22T09:21:59.949Z,48.00
2019-03-22T09:24:38.957Z,48.10
2019-03-22T09:27:00.903Z,47.93
2019-03-22T09:29:30.446Z,47.50
2019-03-22T09:32:00.227Z,47.83
2019-03-22T09:34:34.055Z,48.90
2019-03-22T09:37:01.271Z,49.00
2019-03-22T09:39:30.756Z,49.33
2019-03-22T09:42:00.289Z,49.05
2019-03-22T09:44:42.325Z,48.10
2019-03-22T09:47:00.989Z,49.58
2019-03-22T09:49:30.498Z,48.27
2019-03-22T09:52:00.213Z,47.70
2019-03-22T09:54:29.844Z,49.40
2019-03-22T09:56:59.316Z,48.80
2019-03-22T09:59:29.054Z,47.75
2019-03-22T10:01:58.465Z,46.00
2019-03-22T10:04:27.963Z,47.27
2019-03-22T10:06:57.458Z,49.30
2019-03-22T10:09:27.537Z,48.48
2019-03-22T10:11:57.082Z,47.48
2019-03-22T10:14:26.975Z,48.23
2019-03-22T10:16:56.472Z,49.03
2019-03-22T10:19:25.948Z,47.33
2019-03-22T10:21:56.528Z,48.50
2019-03-22T10:24:26.043Z,46.40
2019-03-22T10:26:55.569Z,47.65
2019-03-22T10:29:25.142Z,49.83
2019-03-22T10:31:54.611Z,49.63
2019-03-22T10:34:24.409Z,47.53
2019-03-22T10:36:53.912Z,49.05
2019-03-22T10:39:23.452Z,50.10
2019-03-22T10:41:52.998Z,49.83
2019-03-22T10:44:22.519Z,49.18
2019-03-22T10:46:52.014Z,47.73
2019-03-22T10:49:21.685Z,48.78
2019-03-22T10:51:57.056Z,48.90
2019-03-22T10:54:22.455Z,48.73
2019-03-22T10:56:52.189Z,50.55
2019-03-22T10:59:21.855Z,47.75
2019-03-22T11:02:02.697Z,47.03
2019-03-22T11:04:22.585Z,45.23
2019-03-22T11:06:52.252Z,47.17
2019-03-22T11:09:21.896Z,47.27
2019-03-22T11:11:51.391Z,44.97
2019-03-22T11:14:20.892Z,47.17
2019-03-22T11:16:50.365Z,44.30
2019-03-22T11:19:19.868Z,45.35
2019-03-22T11:21:49.488Z,46.63
2019-03-22T11:24:19.907Z,46.13
2019-03-22T11:26:49.346Z,43.73
2019-03-22T11:29:18.875Z,40.65
2019-03-22T11:31:48.514Z,43.13
2019-03-22T11:34:18.021Z,42.48
2019-03-22T11:36:47.736Z,43.95
2019-03-22T11:39:17.304Z,43.45
2019-03-22T11:41:46.848Z,44.70
2019-03-22T11:44:16.286Z,42.73
2019-03-22T11:46:45.866Z,40.52
2019-03-22T11:49:15.323Z,41.67
2019-03-22T11:51:44.938Z,43.90
2019-03-22T11:54:14.486Z,39.23
2019-03-22T11:56:43.985Z,37.55
2019-03-22T11:59:13.557Z,39.80
2019-03-22T12:01:43.178Z,41.63
2019-03-22T12:04:13.434Z,41.80
2019-03-22T12:06:42.951Z,40.52
2019-03-22T12:09:12.406Z,41.60
2019-03-22T12:11:42.231Z,40.78
2019-03-22T12:14:11.832Z,39.75
2019-03-22T12:16:41.436Z,39.33
2019-03-22T12:19:10.949Z,37.20
2019-03-22T12:21:40.418Z,38.10
2019-03-22T12:24:09.997Z,40.12
2019-03-22T12:26:39.586Z,36.38
2019-03-22T12:29:09.116Z,37.67
2019-03-22T12:31:38.593Z,38.88
2019-03-22T12:34:08.051Z,39.42
2019-03-22T12:36:38.605Z,39.38
2019-03-22T12:39:08.754Z,36.13
2019-03-22T12:41:39.390Z,37.70
2019-03-22T12:44:09.087Z,38.30
2019-03-22T12:46:38.592Z,40.90
2019-03-22T12:49:08.151Z,39.70
2019-03-22T12:51:37.640Z,38.35
2019-03-22T12:54:07.159Z,42.43
2019-03-22T12:56:36.755Z,40.20
2019-03-22T12:59:06.242Z,34.55
2019-03-22T13:01:35.708Z,40.12
2019-03-22T13:04:05.349Z,41.02
2019-03-22T13:06:35.019Z,42.65
2019-03-22T13:09:07.205Z,39.88
2019-03-22T13:11:36.777Z,44.30
2019-03-22T13:14:06.231Z,42.00
2019-03-22T13:16:35.716Z,39.23
2019-03-22T13:19:05.261Z,37.63
2019-03-22T13:21:35.004Z,37.90
2019-03-22T13:24:04.534Z,36.57
2019-03-22T13:26:34.051Z,37.70
2019-03-22T13:29:04.564Z,35.74
2019-03-22T13:31:34.295Z,34.63
2019-03-22T13:34:04.396Z,32.58
2019-03-22T13:36:33.930Z,33.80
2019-03-22T13:39:04.475Z,33.90
2019-03-22T13:41:33.962Z,34.95
2019-03-22T13:44:04.433Z,31.02
2019-03-22T13:46:40.092Z,33.05
2019-03-22T13:49:05.725Z,32.78
2019-03-22T13:51:35.321Z,37.65
2019-03-22T13:54:04.865Z,28.57
2019-03-22T13:56:34.755Z,30.97
2019-03-22T13:59:04.502Z,29.92
2019-03-22T14:01:33.982Z,33.40
2019-03-22T14:04:04.429Z,35.40
2019-03-22T14:06:34.287Z,36.03
2019-03-22T14:09:07.052Z,36.10
2019-03-22T14:11:36.634Z,34.70
2019-03-22T14:14:06.121Z,34.20
2019-03-22T14:16:36.833Z,37.63
2019-03-22T14:19:06.273Z,42.10
2019-03-22T14:21:35.762Z,39.58
2019-03-22T14:24:05.219Z,36.25
2019-03-22T14:26:34.742Z,40.15
2019-03-22T14:29:04.603Z,40.78
2019-03-22T14:31:34.084Z,40.58
2019-03-22T14:34:04.450Z,38.95
2019-03-22T14:36:34.172Z,41.85
2019-03-22T14:39:07.721Z,42.43
2019-03-22T14:41:38.500Z,41.45
2019-03-22T14:44:07.950Z,44.15
2019-03-22T14:46:37.448Z,41.67
2019-03-22T14:49:07.006Z,42.67
2019-03-22T14:51:36.509Z,42.78
2019-03-22T14:54:06.148Z,41.92
2019-03-22T14:56:35.828Z,43.08
2019-03-22T14:59:05.281Z,42.45
2019-03-22T15:01:34.844Z,40.15
2019-03-22T15:04:04.807Z,42.23
2019-03-22T15:06:34.387Z,40.10
2019-03-22T15:09:06.400Z,41.88
2019-03-22T15:11:36.137Z,40.58
2019-03-22T15:14:07.291Z,41.30
2019-03-22T15:16:38.423Z,42.30
2019-03-22T15:19:13.716Z,41.18
2019-03-22T15:21:44.847Z,41.08
2019-03-22T15:24:16.326Z,41.60
2019-03-22T15:26:50.117Z,41.75
2019-03-22T15:29:37.390Z,42.70
2019-03-22T15:32:24.268Z,42.38
2019-03-22T15:34:55.409Z,43.15
2019-03-22T15:37:29.064Z,42.30
2019-03-22T15:40:00.452Z,41.68
2019-03-22T15:42:30.183Z,43.08
2019-03-22T15:44:59.724Z,38.98
2019-03-22T15:47:29.358Z,42.27
2019-03-22T15:49:58.842Z,40.78
2019-03-22T15:52:28.418Z,41.50
2019-03-22T15:54:57.934Z,41.00
2019-03-22T15:57:27.426Z,41.92
2019-03-22T15:59:56.962Z,40.48
2019-03-22T16:02:26.992Z,40.40
2019-03-22T16:04:56.671Z,40.55
2019-03-22T16:07:26.193Z,40.17
2019-03-22T16:09:55.775Z,40.25
2019-03-22T16:12:25.260Z,40.57
2019-03-22T16:14:54.871Z,39.03
2019-03-22T16:17:24.600Z,41.13
2019-03-22T16:19:54.209Z,39.55
2019-03-22T16:22:23.711Z,39.33
2019-03-22T16:24:53.361Z,39.58
2019-03-22T16:27:22.847Z,39.15
2019-03-22T16:29:52.315Z,39.38
2019-03-22T16:32:22.021Z,38.67
2019-03-22T16:34:51.673Z,38.67
2019-03-22T16:37:21.248Z,40.35
2019-03-22T16:39:53.731Z,40.80
2019-03-22T16:42:23.243Z,41.50
2019-03-22T16:44:56.143Z,40.63
2019-03-22T16:47:25.717Z,40.67
2019-03-22T16:49:55.175Z,41.05
2019-03-22T16:52:24.823Z,40.60
2019-03-22T16:54:54.326Z,41.35
2019-03-22T16:57:24.152Z,42.65
2019-03-22T16:59:53.729Z,41.70
2019-03-22T17:02:23.189Z,38.78
2019-03-22T17:04:52.693Z,42.03
2019-03-22T17:07:22.296Z,38.08
2019-03-22T17:09:51.780Z,42.65
2019-03-22T17:12:22.803Z,42.95
2019-03-22T17:14:52.435Z,42.03
2019-03-22T17:17:21.907Z,41.35
2019-03-22T17:19:53.129Z,42.17
2019-03-22T17:22:22.804Z,40.80
2019-03-22T17:24:52.294Z,42.95
2019-03-22T17:27:21.905Z,46.55
2019-03-22T17:29:51.501Z,42.30
2019-03-22T17:32:21.497Z,41.77
2019-03-22T17:34:51.044Z,41.73
2019-03-22T17:37:20.529Z,42.65
2019-03-22T17:39:50.108Z,42.48
2019-03-22T17:42:19.660Z,41.68
2019-03-22T17:44:49.155Z,42.93
2019-03-22T17:47:18.654Z,43.80
2019-03-22T17:49:48.727Z,43.42
2019-03-22T17:52:18.321Z,43.97
2019-03-22T17:54:47.992Z,44.48
2019-03-22T17:57:18.884Z,43.55
2019-03-22T17:59:48.847Z,44.30
2019-03-22T18:02:18.381Z,43.15
2019-03-22T18:04:47.906Z,42.50
2019-03-22T18:07:17.563Z,44.58
2019-03-22T18:09:47.318Z,43.78
2019-03-22T18:12:16.940Z,44.83
2019-03-22T18:14:46.584Z,47.33
2019-03-22T18:17:16.190Z,46.10
2019-03-22T18:19:46.000Z,44.33
2019-03-22T18:22:15.671Z,44.67
2019-03-22T18:24:45.422Z,46.10
2019-03-22T18:27:14.817Z,45.55
2019-03-22T18:29:44.419Z,44.10
2019-03-22T18:32:14.009Z,45.80
2019-03-22T18:34:44.015Z,45.00
2019-03-22T18:37:13.507Z,45.37
2019-03-22T18:39:42.964Z,45.63
2019-03-22T18:42:12.573Z,45.85
2019-03-22T18:44:42.191Z,47.93
2019-03-22T18:47:11.991Z,46.80
2019-03-22T18:49:41.570Z,45.73
2019-03-22T18:52:11.029Z,46.15
2019-03-22T18:54:40.859Z,48.25
2019-03-22T18:57:10.593Z,46.08
2019-03-22T18:59:40.191Z,49.08
2019-03-22T19:02:09.901Z,46.10
2019-03-22T19:04:43.892Z,47.90
2019-03-22T19:07:10.905Z,47.80
2019-03-22T19:09:40.633Z,48.70
2019-03-22T19:12:10.122Z,45.67
2019-03-22T19:14:39.871Z,48.50
2019-03-22T19:17:09.455Z,47.57
2019-03-22T19:19:38.934Z,48.17
2019-03-22T19:22:09.963Z,51.25
2019-03-22T19:24:39.501Z,48.50
2019-03-22T19:27:09.833Z,47.50
2019-03-22T19:29:39.275Z,47.23
2019-03-22T19:32:13.424Z,48.15
2019-03-22T19:34:40.210Z,49.65
2019-03-22T19:37:10.250Z,47.55
2019-03-22T19:39:40.260Z,50.23
2019-03-22T19:42:09.968Z,50.33
2019-03-22T19:44:39.873Z,48.85
2019-03-22T19:47:09.677Z,48.80
2019-03-22T19:49:39.194Z,48.90
2019-03-22T19:52:08.868Z,50.67
2019-03-22T19:54:38.423Z,49.30
2019-03-22T19:57:08.739Z,50.38
2019-03-22T19:59:38.456Z,50.20
2019-03-22T20:02:08.456Z,49.48
2019-03-22T20:04:40.056Z,51.48
2019-03-22T20:07:11.159Z,50.90
2019-03-22T20:09:40.723Z,50.95
2019-03-22T20:12:10.158Z,49.08
2019-03-22T20:14:39.992Z,49.93
2019-03-22T20:17:09.501Z,50.37
2019-03-22T20:19:39.027Z,49.48
2019-03-22T20:22:08.539Z,50.98
2019-03-22T20:24:38.141Z,49.00
2019-03-22T20:27:07.850Z,50.20
2019-03-22T20:29:38.329Z,49.53
2019-03-22T20:32:11.843Z,50.03
2019-03-22T20:34:41.589Z,50.00
2019-03-22T20:37:11.246Z,51.33
2019-03-22T20:39:41.281Z,50.03
2019-03-22T20:42:11.883Z,51.73
2019-03-22T20:44:41.348Z,51.08
2019-03-22T20:47:14.304Z,51.13
2019-03-22T20:49:45.722Z,51.42
2019-03-22T20:52:15.367Z,51.08
2019-03-22T20:54:45.088Z,52.90
2019-03-22T20:57:16.494Z,54.45
2019-03-22T20:59:46.149Z,53.85
2019-03-22T21:02:15.798Z,54.20
2019-03-22T21:04:45.416Z,52.50
2019-03-22T21:07:16.316Z,53.28
2019-03-22T21:09:45.939Z,52.10
2019-03-22T21:12:15.469Z,50.85
2019-03-22T21:14:45.172Z,50.88
2019-03-22T21:17:16.232Z,52.58
2019-03-22T21:19:45.958Z,52.15
2019-03-22T21:22:15.813Z,53.10
2019-03-22T21:24:45.527Z,52.73
2019-03-22T21:27:16.080Z,50.83
2019-03-22T21:29:49.059Z,50.98
2019-03-22T21:32:21.044Z,50.52
2019-03-22T21:34:51.032Z,53.13
2019-03-22T21:37:20.861Z,53.83
2019-03-22T21:39:50.725Z,51.27
2019-03-22T21:42:20.487Z,52.33
2019-03-22T21:44:50.472Z,52.95
2019-03-22T21:47:20.231Z,52.33
2019-03-22T21:49:52.718Z,53.28
2019-03-22T21:52:22.517Z,53.15
2019-03-22T21:54:54.960Z,52.80
2019-03-22T21:57:24.731Z,53.83
2019-03-22T21:59:54.556Z,53.08
2019-03-22T22:02:24.324Z,51.08
2019-03-22T22:04:55.141Z,52.78
2019-03-22T22:07:24.584Z,52.88
2019-03-22T22:09:54.203Z,51.83
2019-03-22T22:12:23.772Z,51.63
2019-03-22T22:14:53.508Z,52.95
2019-03-22T22:17:23.169Z,53.45
2019-03-22T22:19:52.898Z,52.83
2019-03-22T22:22:22.408Z,51.37
2019-03-22T22:24:52.020Z,51.70
2019-03-22T22:27:21.603Z,50.98
2019-03-22T22:29:51.100Z,51.75
2019-03-22T22:32:21.310Z,53.40
2019-03-22T22:34:50.835Z,53.10
2019-03-22T22:37:21.813Z,50.23
2019-03-22T22:39:51.288Z,50.52
2019-03-22T22:42:20.842Z,52.27
2019-03-22T22:44:50.729Z,50.52
2019-03-22T22:47:20.311Z,51.02
2019-03-22T22:49:49.917Z,51.35
2019-03-22T22:52:19.389Z,51.28
2019-03-22T22:54:48.892Z,50.83
2019-03-22T22:57:18.375Z,51.30
2019-03-22T22:59:47.865Z,51.20
2019-03-22T23:02:17.372Z,49.67
2019-03-22T23:04:46.921Z,52.93
2019-03-22T23:07:16.563Z,52.50
2019-03-22T23:09:46.066Z,52.73
2019-03-22T23:12:15.561Z,50.95
2019-03-22T23:14:45.133Z,52.90
2019-03-22T23:17:14.675Z,52.48
2019-03-22T23:19:44.261Z,52.90
2019-03-22T23:22:13.930Z,52.93
2019-03-22T23:24:43.473Z,52.93
2019-03-22T23:27:13.022Z,52.25
2019-03-22T23:29:42.524Z,53.23
2019-03-22T23:32:12.177Z,52.23
2019-03-22T23:34:41.668Z,52.50
2019-03-22T23:37:11.177Z,55.17
2019-03-22T23:39:40.697Z,53.05
2019-03-22T23:42:10.331Z,54.85
2019-03-22T23:44:39.911Z,51.23
2019-03-22T23:47:09.469Z,53.80
2019-03-22T23:49:38.958Z,52.65
2019-03-22T23:52:08.521Z,52.83
2019-03-22T23:54:38.334Z,53.98
2019-03-22T23:57:07.916Z,54.08
2019-03-22T23:59:37.463Z,53.30
